Fergestown, Illinois
Current Conditions -  °F | °C
As of 3:52 PM on Sunday 21 Dec 2014 (Local Time) from KMWA Reporting Station
Scattered Clouds Scattered Clouds  
Wind Chill: 42°   Ceiling: Unl
Heat Index: 46°   Visibility: 15mi
Dew Point: 32°   Wind: 9mph
Humidity: 57%   Direction: 110°ESE
Pressure: 30.08"   Gusts: NA
Location:  37.8335°N, 88.8867°W
Report Text: KMWA 212152Z 11008KT 15SM SCT250 08/00 A3008
Loading
Personal Weather Stations






























Interactive Weather Map New forecast layout! Learn more

10-Day Weather Forecast

Advertisements
Track Severe Weather on mobile